sensor_id;sensor_type;location;lat;lon;timestamp;P1;durP1;ratioP1;P2;durP2;ratioP2
34369;SDS011;20635;55.812;37.560;2022-12-07T00:01:41;0.88;;;0.70;;
34369;SDS011;20635;55.812;37.560;2022-12-07T00:04:10;0.80;;;0.80;;
34369;SDS011;20635;55.812;37.560;2022-12-07T00:06:39;1.10;;;0.70;;
34369;SDS011;20635;55.812;37.560;2022-12-07T00:09:13;1.33;;;0.80;;
34369;SDS011;20635;55.812;37.560;2022-12-07T00:11:49;0.50;;;0.50;;
34369;SDS011;20635;55.812;37.560;2022-12-07T00:14:18;0.93;;;0.82;;
34369;SDS011;20635;55.812;37.560;2022-12-07T00:16:44;1.52;;;0.77;;
34369;SDS011;20635;55.812;37.560;2022-12-07T00:19:11;1.25;;;0.77;;
34369;SDS011;20635;55.812;37.560;2022-12-07T00:21:39;2.05;;;0.80;;
34369;SDS011;20635;55.812;37.560;2022-12-07T00:24:05;2.30;;;0.85;;
34369;SDS011;20635;55.812;37.560;2022-12-07T00:26:32;1.73;;;0.70;;
34369;SDS011;20635;55.812;37.560;2022-12-07T00:29:03;0.80;;;0.80;;
34369;SDS011;20635;55.812;37.560;2022-12-07T00:31:33;0.98;;;0.75;;
34369;SDS011;20635;55.812;37.560;2022-12-07T00:34:06;0.80;;;0.70;;
34369;SDS011;20635;55.812;37.560;2022-12-07T00:36:36;0.70;;;0.70;;
34369;SDS011;20635;55.812;37.560;2022-12-07T00:39:05;1.27;;;0.70;;
34369;SDS011;20635;55.812;37.560;2022-12-07T00:41:31;1.33;;;0.80;;
34369;SDS011;20635;55.812;37.560;2022-12-07T00:43:57;2.28;;;0.90;;
34369;SDS011;20635;55.812;37.560;2022-12-07T00:46:23;0.95;;;0.85;;
34369;SDS011;20635;55.812;37.560;2022-12-07T00:48:50;1.05;;;0.90;;
34369;SDS011;20635;55.812;37.560;2022-12-07T00:51:18;0.77;;;0.70;;
34369;SDS011;20635;55.812;37.560;2022-12-07T00:53:45;1.20;;;0.77;;
34369;SDS011;20635;55.812;37.560;2022-12-07T00:56:11;0.93;;;0.85;;
34369;SDS011;20635;55.812;37.560;2022-12-07T00:58:42;1.15;;;0.90;;
34369;SDS011;20635;55.812;37.560;2022-12-07T01:01:08;1.65;;;0.90;;
34369;SDS011;20635;55.812;37.560;2022-12-07T01:03:36;1.35;;;0.88;;
34369;SDS011;20635;55.812;37.560;2022-12-07T01:06:03;1.13;;;0.95;;
34369;SDS011;20635;55.812;37.560;2022-12-07T01:08:29;0.80;;;0.70;;
34369;SDS011;20635;55.812;37.560;2022-12-07T01:11:05;1.02;;;0.93;;
34369;SDS011;20635;55.812;37.560;2022-12-07T01:13:32;0.75;;;0.75;;
34369;SDS011;20635;55.812;37.560;2022-12-07T01:16:00;1.92;;;0.80;;
34369;SDS011;20635;55.812;37.560;2022-12-07T01:18:28;5.88;;;0.77;;
34369;SDS011;20635;55.812;37.560;2022-12-07T01:21:03;0.80;;;0.80;;
34369;SDS011;20635;55.812;37.560;2022-12-07T01:23:30;0.98;;;0.85;;
34369;SDS011;20635;55.812;37.560;2022-12-07T01:25:57;1.30;;;1.20;;
34369;SDS011;20635;55.812;37.560;2022-12-07T01:28:24;1.67;;;0.80;;
34369;SDS011;20635;55.812;37.560;2022-12-07T01:30:57;1.67;;;1.02;;
34369;SDS011;20635;55.812;37.560;2022-12-07T01:33:29;0.98;;;0.88;;
34369;SDS011;20635;55.812;37.560;2022-12-07T01:38:38;1.35;;;0.88;;
34369;SDS011;20635;55.812;37.560;2022-12-07T01:41:05;1.25;;;0.85;;
34369;SDS011;20635;55.812;37.560;2022-12-07T01:43:31;0.80;;;0.63;;
34369;SDS011;20635;55.812;37.560;2022-12-07T01:45:58;0.73;;;0.70;;
34369;SDS011;20635;55.812;37.560;2022-12-07T01:48:34;2.70;;;1.10;;
34369;SDS011;20635;55.812;37.560;2022-12-07T01:51:05;1.27;;;1.08;;
34369;SDS011;20635;55.812;37.560;2022-12-07T01:53:35;1.08;;;0.90;;
34369;SDS011;20635;55.812;37.560;2022-12-07T01:56:04;1.42;;;0.90;;
34369;SDS011;20635;55.812;37.560;2022-12-07T01:58:32;1.40;;;1.08;;
34369;SDS011;20635;55.812;37.560;2022-12-07T02:00:59;0.80;;;0.80;;
34369;SDS011;20635;55.812;37.560;2022-12-07T02:03:35;1.35;;;1.02;;
34369;SDS011;20635;55.812;37.560;2022-12-07T02:06:04;1.42;;;0.80;;
34369;SDS011;20635;55.812;37.560;2022-12-07T02:08:32;1.60;;;0.90;;
34369;SDS011;20635;55.812;37.560;2022-12-07T02:11:00;1.30;;;1.00;;
34369;SDS011;20635;55.812;37.560;2022-12-07T02:13:28;1.73;;;0.93;;
34369;SDS011;20635;55.812;37.560;2022-12-07T02:24:36;1.63;;;1.00;;
34369;SDS011;20635;55.812;37.560;2022-12-07T02:32:47;1.38;;;1.08;;
34369;SDS011;20635;55.812;37.560;2022-12-07T02:35:20;0.95;;;0.85;;
34369;SDS011;20635;55.812;37.560;2022-12-07T02:41:06;1.98;;;1.00;;
34369;SDS011;20635;55.812;37.560;2022-12-07T02:43:36;1.20;;;0.82;;
34369;SDS011;20635;55.812;37.560;2022-12-07T02:46:13;1.45;;;1.00;;
34369;SDS011;20635;55.812;37.560;2022-12-07T02:48:41;1.08;;;0.80;;
34369;SDS011;20635;55.812;37.560;2022-12-07T02:51:09;1.85;;;0.90;;
34369;SDS011;20635;55.812;37.560;2022-12-07T02:53:36;1.00;;;0.77;;
34369;SDS011;20635;55.812;37.560;2022-12-07T02:56:09;1.08;;;0.88;;
34369;SDS011;20635;55.812;37.560;2022-12-07T02:58:50;1.27;;;1.00;;
34369;SDS011;20635;55.812;37.560;2022-12-07T03:06:52;1.65;;;0.80;;
34369;SDS011;20635;55.812;37.560;2022-12-07T03:12:19;1.20;;;0.90;;
34369;SDS011;20635;55.812;37.560;2022-12-07T03:14:59;2.10;;;1.38;;
34369;SDS011;20635;55.812;37.560;2022-12-07T03:17:31;1.20;;;0.90;;
34369;SDS011;20635;55.812;37.560;2022-12-07T03:20:02;2.33;;;0.95;;
34369;SDS011;20635;55.812;37.560;2022-12-07T03:22:31;1.20;;;0.75;;
34369;SDS011;20635;55.812;37.560;2022-12-07T03:25:02;1.40;;;0.80;;
34369;SDS011;20635;55.812;37.560;2022-12-07T03:27:32;1.73;;;0.80;;
34369;SDS011;20635;55.812;37.560;2022-12-07T03:30:06;1.17;;;0.70;;
34369;SDS011;20635;55.812;37.560;2022-12-07T03:32:41;2.15;;;0.80;;
34369;SDS011;20635;55.812;37.560;2022-12-07T03:35:33;3.67;;;0.80;;
34369;SDS011;20635;55.812;37.560;2022-12-07T03:38:13;1.00;;;0.75;;
34369;SDS011;20635;55.812;37.560;2022-12-07T03:41:03;1.05;;;0.95;;
34369;SDS011;20635;55.812;37.560;2022-12-07T03:43:34;1.20;;;0.68;;
34369;SDS011;20635;55.812;37.560;2022-12-07T03:46:19;0.65;;;0.60;;
34369;SDS011;20635;55.812;37.560;2022-12-07T03:51:39;0.98;;;0.70;;
34369;SDS011;20635;55.812;37.560;2022-12-07T03:54:24;0.77;;;0.77;;
34369;SDS011;20635;55.812;37.560;2022-12-07T03:56:56;2.35;;;0.70;;
34369;SDS011;20635;55.812;37.560;2022-12-07T03:59:23;0.88;;;0.55;;
34369;SDS011;20635;55.812;37.560;2022-12-07T04:01:51;0.93;;;0.60;;
34369;SDS011;20635;55.812;37.560;2022-12-07T04:04:20;1.00;;;0.73;;
34369;SDS011;20635;55.812;37.560;2022-12-07T04:06:47;1.02;;;0.73;;
34369;SDS011;20635;55.812;37.560;2022-12-07T04:09:13;0.60;;;0.60;;
34369;SDS011;20635;55.812;37.560;2022-12-07T04:11:40;0.60;;;0.47;;
34369;SDS011;20635;55.812;37.560;2022-12-07T04:14:06;1.77;;;0.90;;
34369;SDS011;20635;55.812;37.560;2022-12-07T04:16:44;2.05;;;0.68;;
34369;SDS011;20635;55.812;37.560;2022-12-07T04:19:18;1.85;;;0.60;;
34369;SDS011;20635;55.812;37.560;2022-12-07T04:21:45;1.15;;;0.70;;
34369;SDS011;20635;55.812;37.560;2022-12-07T04:24:12;1.15;;;0.60;;
34369;SDS011;20635;55.812;37.560;2022-12-07T04:26:40;0.95;;;0.70;;
34369;SDS011;20635;55.812;37.560;2022-12-07T04:29:07;1.92;;;0.70;;
34369;SDS011;20635;55.812;37.560;2022-12-07T04:31:33;2.15;;;0.77;;
34369;SDS011;20635;55.812;37.560;2022-12-07T04:33:59;1.27;;;0.95;;
34369;SDS011;20635;55.812;37.560;2022-12-07T04:36:25;0.98;;;0.60;;
34369;SDS011;20635;55.812;37.560;2022-12-07T04:38:52;2.58;;;1.00;;
34369;SDS011;20635;55.812;37.560;2022-12-07T04:41:20;1.98;;;0.88;;
34369;SDS011;20635;55.812;37.560;2022-12-07T04:43:57;1.20;;;0.82;;
34369;SDS011;20635;55.812;37.560;2022-12-07T04:46:25;1.08;;;0.90;;
34369;SDS011;20635;55.812;37.560;2022-12-07T04:48:52;3.72;;;1.00;;
34369;SDS011;20635;55.812;37.560;2022-12-07T04:51:20;1.70;;;1.23;;
34369;SDS011;20635;55.812;37.560;2022-12-07T04:53:53;1.90;;;1.60;;
34369;SDS011;20635;55.812;37.560;2022-12-07T04:56:20;2.92;;;1.23;;
34369;SDS011;20635;55.812;37.560;2022-12-07T04:58:47;3.67;;;1.65;;
34369;SDS011;20635;55.812;37.560;2022-12-07T05:01:14;1.30;;;1.20;;
34369;SDS011;20635;55.812;37.560;2022-12-07T05:03:42;2.38;;;1.50;;
34369;SDS011;20635;55.812;37.560;2022-12-07T05:06:08;1.52;;;1.35;;
34369;SDS011;20635;55.812;37.560;2022-12-07T05:08:35;1.90;;;1.33;;
34369;SDS011;20635;55.812;37.560;2022-12-07T05:11:01;2.15;;;1.60;;
34369;SDS011;20635;55.812;37.560;2022-12-07T05:13:28;1.80;;;1.33;;
34369;SDS011;20635;55.812;37.560;2022-12-07T05:15:54;1.35;;;1.25;;
34369;SDS011;20635;55.812;37.560;2022-12-07T05:18:20;1.90;;;1.20;;
34369;SDS011;20635;55.812;37.560;2022-12-07T05:20:46;1.75;;;1.33;;
34369;SDS011;20635;55.812;37.560;2022-12-07T05:23:12;1.35;;;1.20;;
34369;SDS011;20635;55.812;37.560;2022-12-07T05:25:38;1.02;;;0.90;;
34369;SDS011;20635;55.812;37.560;2022-12-07T05:28:04;3.15;;;1.65;;
34369;SDS011;20635;55.812;37.560;2022-12-07T05:30:31;3.30;;;1.40;;
34369;SDS011;20635;55.812;37.560;2022-12-07T05:32:57;2.67;;;1.20;;
34369;SDS011;20635;55.812;37.560;2022-12-07T05:35:23;2.75;;;1.50;;
34369;SDS011;20635;55.812;37.560;2022-12-07T05:37:49;1.55;;;1.27;;
34369;SDS011;20635;55.812;37.560;2022-12-07T05:40:15;3.85;;;1.55;;
34369;SDS011;20635;55.812;37.560;2022-12-07T05:42:42;1.38;;;1.15;;
34369;SDS011;20635;55.812;37.560;2022-12-07T05:45:09;2.33;;;1.65;;
34369;SDS011;20635;55.812;37.560;2022-12-07T05:47:35;4.25;;;1.80;;
34369;SDS011;20635;55.812;37.560;2022-12-07T05:50:03;4.47;;;1.52;;
34369;SDS011;20635;55.812;37.560;2022-12-07T05:52:30;3.78;;;1.98;;
34369;SDS011;20635;55.812;37.560;2022-12-07T05:54:56;4.10;;;1.33;;
34369;SDS011;20635;55.812;37.560;2022-12-07T05:57:21;1.75;;;1.35;;
34369;SDS011;20635;55.812;37.560;2022-12-07T05:59:47;2.30;;;1.38;;
34369;SDS011;20635;55.812;37.560;2022-12-07T06:02:14;3.05;;;1.60;;
34369;SDS011;20635;55.812;37.560;2022-12-07T06:04:42;3.25;;;1.45;;
34369;SDS011;20635;55.812;37.560;2022-12-07T06:07:10;3.83;;;1.40;;
34369;SDS011;20635;55.812;37.560;2022-12-07T06:09:36;3.30;;;2.03;;
34369;SDS011;20635;55.812;37.560;2022-12-07T06:12:02;3.95;;;1.80;;
34369;SDS011;20635;55.812;37.560;2022-12-07T06:14:47;1.67;;;1.40;;
34369;SDS011;20635;55.812;37.560;2022-12-07T06:17:13;3.03;;;1.40;;
34369;SDS011;20635;55.812;37.560;2022-12-07T06:19:39;2.53;;;1.70;;
34369;SDS011;20635;55.812;37.560;2022-12-07T06:22:05;1.63;;;1.52;;
34369;SDS011;20635;55.812;37.560;2022-12-07T06:24:32;6.18;;;2.20;;
34369;SDS011;20635;55.812;37.560;2022-12-07T06:26:58;2.20;;;1.90;;
34369;SDS011;20635;55.812;37.560;2022-12-07T06:29:25;2.90;;;1.80;;
34369;SDS011;20635;55.812;37.560;2022-12-07T06:31:51;3.47;;;1.85;;
34369;SDS011;20635;55.812;37.560;2022-12-07T06:34:18;2.38;;;1.75;;
34369;SDS011;20635;55.812;37.560;2022-12-07T06:36:46;2.78;;;1.70;;
34369;SDS011;20635;55.812;37.560;2022-12-07T06:39:16;2.22;;;1.55;;
34369;SDS011;20635;55.812;37.560;2022-12-07T06:41:44;4.07;;;2.03;;
34369;SDS011;20635;55.812;37.560;2022-12-07T06:44:10;3.25;;;1.80;;
34369;SDS011;20635;55.812;37.560;2022-12-07T06:46:36;2.38;;;1.60;;
34369;SDS011;20635;55.812;37.560;2022-12-07T06:49:03;2.50;;;1.77;;
34369;SDS011;20635;55.812;37.560;2022-12-07T06:51:30;3.70;;;2.10;;
34369;SDS011;20635;55.812;37.560;2022-12-07T06:54:15;2.22;;;1.88;;
34369;SDS011;20635;55.812;37.560;2022-12-07T06:56:41;2.55;;;2.03;;
34369;SDS011;20635;55.812;37.560;2022-12-07T06:59:07;2.58;;;1.85;;
34369;SDS011;20635;55.812;37.560;2022-12-07T07:01:33;3.05;;;2.05;;
34369;SDS011;20635;55.812;37.560;2022-12-07T07:04:00;2.63;;;2.05;;
34369;SDS011;20635;55.812;37.560;2022-12-07T07:06:27;2.58;;;2.15;;
34369;SDS011;20635;55.812;37.560;2022-12-07T07:08:52;2.70;;;2.08;;
34369;SDS011;20635;55.812;37.560;2022-12-07T07:11:18;3.20;;;2.35;;
34369;SDS011;20635;55.812;37.560;2022-12-07T07:13:45;2.67;;;2.08;;
34369;SDS011;20635;55.812;37.560;2022-12-07T07:16:11;3.83;;;2.63;;
34369;SDS011;20635;55.812;37.560;2022-12-07T07:18:37;2.20;;;2.00;;
34369;SDS011;20635;55.812;37.560;2022-12-07T07:21:03;2.50;;;2.22;;
34369;SDS011;20635;55.812;37.560;2022-12-07T07:23:29;2.90;;;2.05;;
34369;SDS011;20635;55.812;37.560;2022-12-07T07:25:55;2.70;;;2.10;;
34369;SDS011;20635;55.812;37.560;2022-12-07T07:28:21;2.55;;;2.35;;
34369;SDS011;20635;55.812;37.560;2022-12-07T07:30:47;3.45;;;2.42;;
34369;SDS011;20635;55.812;37.560;2022-12-07T07:33:13;4.30;;;2.40;;
34369;SDS011;20635;55.812;37.560;2022-12-07T07:35:39;3.13;;;2.30;;
34369;SDS011;20635;55.812;37.560;2022-12-07T07:38:05;3.70;;;2.15;;
34369;SDS011;20635;55.812;37.560;2022-12-07T07:40:31;2.63;;;2.20;;
34369;SDS011;20635;55.812;37.560;2022-12-07T07:42:58;2.95;;;2.33;;
34369;SDS011;20635;55.812;37.560;2022-12-07T07:45:25;3.33;;;2.30;;
34369;SDS011;20635;55.812;37.560;2022-12-07T07:47:52;3.47;;;2.70;;
34369;SDS011;20635;55.812;37.560;2022-12-07T07:50:18;3.15;;;2.45;;
34369;SDS011;20635;55.812;37.560;2022-12-07T07:52:45;3.13;;;2.28;;
34369;SDS011;20635;55.812;37.560;2022-12-07T07:55:11;2.40;;;2.20;;
34369;SDS011;20635;55.812;37.560;2022-12-07T07:57:38;3.35;;;2.53;;
34369;SDS011;20635;55.812;37.560;2022-12-07T08:00:06;2.78;;;2.50;;
34369;SDS011;20635;55.812;37.560;2022-12-07T08:02:38;3.03;;;2.63;;
34369;SDS011;20635;55.812;37.560;2022-12-07T08:05:04;3.90;;;2.47;;
34369;SDS011;20635;55.812;37.560;2022-12-07T08:07:30;3.30;;;2.33;;
34369;SDS011;20635;55.812;37.560;2022-12-07T08:09:56;4.05;;;2.72;;
34369;SDS011;20635;55.812;37.560;2022-12-07T08:12:22;4.05;;;2.53;;
34369;SDS011;20635;55.812;37.560;2022-12-07T08:14:48;2.90;;;2.00;;
34369;SDS011;20635;55.812;37.560;2022-12-07T08:17:14;3.58;;;2.40;;
34369;SDS011;20635;55.812;37.560;2022-12-07T08:19:40;3.13;;;2.03;;
34369;SDS011;20635;55.812;37.560;2022-12-07T08:22:06;3.10;;;2.33;;
34369;SDS011;20635;55.812;37.560;2022-12-07T08:24:35;2.67;;;2.40;;
34369;SDS011;20635;55.812;37.560;2022-12-07T08:27:01;3.10;;;2.75;;
34369;SDS011;20635;55.812;37.560;2022-12-07T08:29:28;2.85;;;2.20;;
34369;SDS011;20635;55.812;37.560;2022-12-07T08:31:54;3.35;;;2.40;;
34369;SDS011;20635;55.812;37.560;2022-12-07T08:34:19;5.22;;;2.50;;
34369;SDS011;20635;55.812;37.560;2022-12-07T08:36:45;3.03;;;2.45;;
34369;SDS011;20635;55.812;37.560;2022-12-07T08:39:11;3.95;;;2.70;;
34369;SDS011;20635;55.812;37.560;2022-12-07T08:41:37;2.60;;;2.30;;
34369;SDS011;20635;55.812;37.560;2022-12-07T08:44:04;2.40;;;2.20;;
34369;SDS011;20635;55.812;37.560;2022-12-07T08:49:13;3.20;;;2.35;;
34369;SDS011;20635;55.812;37.560;2022-12-07T08:51:43;3.50;;;2.78;;
34369;SDS011;20635;55.812;37.560;2022-12-07T08:54:11;2.70;;;2.33;;
34369;SDS011;20635;55.812;37.560;2022-12-07T08:56:39;2.85;;;2.55;;
34369;SDS011;20635;55.812;37.560;2022-12-07T08:59:06;4.97;;;2.90;;
34369;SDS011;20635;55.812;37.560;2022-12-07T09:01:32;3.85;;;2.85;;
34369;SDS011;20635;55.812;37.560;2022-12-07T09:03:58;2.80;;;2.45;;
34369;SDS011;20635;55.812;37.560;2022-12-07T09:06:24;2.92;;;1.95;;
34369;SDS011;20635;55.812;37.560;2022-12-07T09:08:51;2.67;;;2.17;;
34369;SDS011;20635;55.812;37.560;2022-12-07T09:11:21;2.97;;;2.33;;
34369;SDS011;20635;55.812;37.560;2022-12-07T09:13:47;2.58;;;2.28;;
34369;SDS011;20635;55.812;37.560;2022-12-07T09:16:13;2.88;;;2.28;;
34369;SDS011;20635;55.812;37.560;2022-12-07T09:18:39;3.80;;;2.67;;
34369;SDS011;20635;55.812;37.560;2022-12-07T09:21:05;3.88;;;2.75;;
34369;SDS011;20635;55.812;37.560;2022-12-07T09:23:31;2.72;;;2.28;;
34369;SDS011;20635;55.812;37.560;2022-12-07T09:26:00;2.90;;;2.10;;
34369;SDS011;20635;55.812;37.560;2022-12-07T09:28:27;3.65;;;2.97;;
34369;SDS011;20635;55.812;37.560;2022-12-07T09:30:53;2.90;;;2.30;;
34369;SDS011;20635;55.812;37.560;2022-12-07T09:33:19;6.35;;;2.13;;
34369;SDS011;20635;55.812;37.560;2022-12-07T09:35:45;3.90;;;2.47;;
34369;SDS011;20635;55.812;37.560;2022-12-07T09:38:12;4.63;;;2.30;;
34369;SDS011;20635;55.812;37.560;2022-12-07T09:40:38;3.83;;;2.45;;
34369;SDS011;20635;55.812;37.560;2022-12-07T09:43:05;4.40;;;2.10;;
34369;SDS011;20635;55.812;37.560;2022-12-07T09:45:37;3.97;;;2.70;;
34369;SDS011;20635;55.812;37.560;2022-12-07T09:48:04;4.78;;;2.30;;
34369;SDS011;20635;55.812;37.560;2022-12-07T09:50:30;2.72;;;2.40;;
34369;SDS011;20635;55.812;37.560;2022-12-07T09:53:33;2.63;;;1.85;;
34369;SDS011;20635;55.812;37.560;2022-12-07T09:55:54;3.78;;;2.22;;
34369;SDS011;20635;55.812;37.560;2022-12-07T09:58:22;2.70;;;2.42;;
34369;SDS011;20635;55.812;37.560;2022-12-07T10:03:37;2.53;;;1.88;;
34369;SDS011;20635;55.812;37.560;2022-12-07T10:08:32;2.88;;;2.17;;
34369;SDS011;20635;55.812;37.560;2022-12-07T10:10:59;3.38;;;2.40;;
34369;SDS011;20635;55.812;37.560;2022-12-07T10:13:36;4.38;;;2.20;;
34369;SDS011;20635;55.812;37.560;2022-12-07T10:16:32;3.60;;;2.55;;
34369;SDS011;20635;55.812;37.560;2022-12-07T10:18:55;3.22;;;1.90;;
34369;SDS011;20635;55.812;37.560;2022-12-07T10:21:24;4.30;;;2.38;;
34369;SDS011;20635;55.812;37.560;2022-12-07T10:24:00;1.90;;;1.70;;
34369;SDS011;20635;55.812;37.560;2022-12-07T10:26:35;3.92;;;2.08;;
34369;SDS011;20635;55.812;37.560;2022-12-07T10:31:46;2.95;;;2.40;;
34369;SDS011;20635;55.812;37.560;2022-12-07T10:36:51;2.63;;;1.80;;
34369;SDS011;20635;55.812;37.560;2022-12-07T10:39:19;3.85;;;2.30;;
34369;SDS011;20635;55.812;37.560;2022-12-07T10:41:57;7.18;;;2.60;;
34369;SDS011;20635;55.812;37.560;2022-12-07T10:44:24;3.72;;;2.20;;
34369;SDS011;20635;55.812;37.560;2022-12-07T11:00:24;3.05;;;2.35;;
34369;SDS011;20635;55.812;37.560;2022-12-07T11:06:12;2.55;;;2.10;;
34369;SDS011;20635;55.812;37.560;2022-12-07T11:13:43;2.92;;;2.17;;
34369;SDS011;20635;55.812;37.560;2022-12-07T11:16:22;3.13;;;2.20;;
34369;SDS011;20635;55.812;37.560;2022-12-07T11:21:43;4.63;;;1.92;;
34369;SDS011;20635;55.812;37.560;2022-12-07T11:24:18;3.63;;;2.43;;
34369;SDS011;20635;55.812;37.560;2022-12-07T11:26:59;3.05;;;2.08;;
34369;SDS011;20635;55.812;37.560;2022-12-07T11:29:50;3.25;;;2.47;;
34369;SDS011;20635;55.812;37.560;2022-12-07T11:37:48;3.22;;;2.03;;
34369;SDS011;20635;55.812;37.560;2022-12-07T11:40:34;2.55;;;2.05;;
34369;SDS011;20635;55.812;37.560;2022-12-07T11:46:00;3.20;;;2.15;;
34369;SDS011;20635;55.812;37.560;2022-12-07T11:48:33;3.38;;;1.90;;
34369;SDS011;20635;55.812;37.560;2022-12-07T11:51:03;4.07;;;2.10;;
34369;SDS011;20635;55.812;37.560;2022-12-07T11:53:54;2.88;;;1.90;;
34369;SDS011;20635;55.812;37.560;2022-12-07T11:56:27;5.47;;;2.22;;
34369;SDS011;20635;55.812;37.560;2022-12-07T11:59:00;1.80;;;1.50;;
34369;SDS011;20635;55.812;37.560;2022-12-07T12:06:39;2.53;;;1.40;;
34369;SDS011;20635;55.812;37.560;2022-12-07T12:18:02;2.85;;;1.70;;
34369;SDS011;20635;55.812;37.560;2022-12-07T12:21:22;1.88;;;1.45;;
34369;SDS011;20635;55.812;37.560;2022-12-07T12:23:35;2.42;;;1.67;;
34369;SDS011;20635;55.812;37.560;2022-12-07T12:26:07;1.88;;;1.60;;
34369;SDS011;20635;55.812;37.560;2022-12-07T12:31:15;3.58;;;1.50;;
34369;SDS011;20635;55.812;37.560;2022-12-07T12:33:57;1.80;;;1.40;;
34369;SDS011;20635;55.812;37.560;2022-12-07T12:44:02;3.03;;;1.60;;
34369;SDS011;20635;55.812;37.560;2022-12-07T12:49:32;1.95;;;1.67;;
34369;SDS011;20635;55.812;37.560;2022-12-07T12:55:00;2.63;;;1.48;;
34369;SDS011;20635;55.812;37.560;2022-12-07T12:57:38;1.85;;;1.60;;
34369;SDS011;20635;55.812;37.560;2022-12-07T13:00:20;1.85;;;1.55;;
34369;SDS011;20635;55.812;37.560;2022-12-07T13:02:49;3.45;;;1.67;;
34369;SDS011;20635;55.812;37.560;2022-12-07T13:05:24;3.65;;;1.90;;
34369;SDS011;20635;55.812;37.560;2022-12-07T13:07:55;3.25;;;1.70;;
34369;SDS011;20635;55.812;37.560;2022-12-07T13:18:14;2.08;;;1.83;;
34369;SDS011;20635;55.812;37.560;2022-12-07T13:20:54;2.55;;;2.25;;
34369;SDS011;20635;55.812;37.560;2022-12-07T13:26:23;2.28;;;1.92;;
34369;SDS011;20635;55.812;37.560;2022-12-07T13:31:55;2.30;;;2.10;;
34369;SDS011;20635;55.812;37.560;2022-12-07T13:34:32;2.70;;;2.20;;
34369;SDS011;20635;55.812;37.560;2022-12-07T13:37:04;2.60;;;2.17;;
34369;SDS011;20635;55.812;37.560;2022-12-07T13:39:45;3.25;;;2.08;;
34369;SDS011;20635;55.812;37.560;2022-12-07T13:42:26;2.95;;;2.65;;
34369;SDS011;20635;55.812;37.560;2022-12-07T13:44:54;2.55;;;2.22;;
34369;SDS011;20635;55.812;37.560;2022-12-07T13:47:31;3.75;;;2.35;;
34369;SDS011;20635;55.812;37.560;2022-12-07T13:49:58;3.92;;;1.90;;
34369;SDS011;20635;55.812;37.560;2022-12-07T13:52:26;2.88;;;2.20;;
34369;SDS011;20635;55.812;37.560;2022-12-07T13:57:33;3.03;;;2.40;;
34369;SDS011;20635;55.812;37.560;2022-12-07T14:00:04;2.42;;;2.00;;
34369;SDS011;20635;55.812;37.560;2022-12-07T14:02:53;2.67;;;1.98;;
34369;SDS011;20635;55.812;37.560;2022-12-07T14:05:25;3.53;;;1.95;;
34369;SDS011;20635;55.812;37.560;2022-12-07T14:07:57;3.75;;;1.83;;
34369;SDS011;20635;55.812;37.560;2022-12-07T14:10:30;2.83;;;2.00;;
34369;SDS011;20635;55.812;37.560;2022-12-07T14:13:01;2.50;;;1.90;;
34369;SDS011;20635;55.812;37.560;2022-12-07T14:15:44;2.40;;;2.08;;
34369;SDS011;20635;55.812;37.560;2022-12-07T14:18:24;2.97;;;2.17;;
34369;SDS011;20635;55.812;37.560;2022-12-07T14:21:29;3.03;;;2.00;;
34369;SDS011;20635;55.812;37.560;2022-12-07T14:26:33;2.58;;;2.13;;
34369;SDS011;20635;55.812;37.560;2022-12-07T14:31:45;2.70;;;2.20;;
34369;SDS011;20635;55.812;37.560;2022-12-07T14:34:11;2.50;;;2.10;;
34369;SDS011;20635;55.812;37.560;2022-12-07T14:36:38;3.17;;;2.08;;
34369;SDS011;20635;55.812;37.560;2022-12-07T14:39:04;2.45;;;2.03;;
34369;SDS011;20635;55.812;37.560;2022-12-07T14:41:30;2.42;;;2.03;;
34369;SDS011;20635;55.812;37.560;2022-12-07T14:44:15;3.35;;;1.95;;
34369;SDS011;20635;55.812;37.560;2022-12-07T14:46:41;2.08;;;1.88;;
34369;SDS011;20635;55.812;37.560;2022-12-07T14:49:07;2.67;;;1.85;;
34369;SDS011;20635;55.812;37.560;2022-12-07T14:51:33;2.28;;;2.08;;
34369;SDS011;20635;55.812;37.560;2022-12-07T14:54:03;2.72;;;1.98;;
34369;SDS011;20635;55.812;37.560;2022-12-07T14:56:32;2.00;;;1.77;;
34369;SDS011;20635;55.812;37.560;2022-12-07T14:58:58;1.95;;;1.75;;
34369;SDS011;20635;55.812;37.560;2022-12-07T15:01:23;3.17;;;2.20;;
34369;SDS011;20635;55.812;37.560;2022-12-07T15:03:49;2.10;;;1.90;;
34369;SDS011;20635;55.812;37.560;2022-12-07T15:06:16;2.60;;;1.90;;
34369;SDS011;20635;55.812;37.560;2022-12-07T15:08:43;1.77;;;1.67;;
34369;SDS011;20635;55.812;37.560;2022-12-07T15:11:13;2.30;;;1.92;;
34369;SDS011;20635;55.812;37.560;2022-12-07T15:13:40;2.13;;;1.92;;
34369;SDS011;20635;55.812;37.560;2022-12-07T15:16:24;2.35;;;1.67;;
34369;SDS011;20635;55.812;37.560;2022-12-07T15:18:50;2.72;;;1.85;;
34369;SDS011;20635;55.812;37.560;2022-12-07T15:21:16;2.33;;;1.60;;
34369;SDS011;20635;55.812;37.560;2022-12-07T15:23:42;2.42;;;1.90;;
34369;SDS011;20635;55.812;37.560;2022-12-07T15:26:11;2.35;;;1.77;;
34369;SDS011;20635;55.812;37.560;2022-12-07T15:28:37;1.67;;;1.52;;
34369;SDS011;20635;55.812;37.560;2022-12-07T15:31:03;3.30;;;2.33;;
34369;SDS011;20635;55.812;37.560;2022-12-07T15:33:29;1.90;;;1.58;;
34369;SDS011;20635;55.812;37.560;2022-12-07T15:35:55;1.70;;;1.50;;
34369;SDS011;20635;55.812;37.560;2022-12-07T15:38:21;2.13;;;1.60;;
34369;SDS011;20635;55.812;37.560;2022-12-07T15:40:47;1.60;;;1.50;;
34369;SDS011;20635;55.812;37.560;2022-12-07T15:43:14;2.00;;;1.80;;
34369;SDS011;20635;55.812;37.560;2022-12-07T15:46:08;2.42;;;1.60;;
34369;SDS011;20635;55.812;37.560;2022-12-07T15:48:34;2.85;;;1.90;;
34369;SDS011;20635;55.812;37.560;2022-12-07T15:51:01;2.10;;;1.88;;
34369;SDS011;20635;55.812;37.560;2022-12-07T15:53:31;2.90;;;1.70;;
34369;SDS011;20635;55.812;37.560;2022-12-07T15:55:58;2.30;;;1.98;;
34369;SDS011;20635;55.812;37.560;2022-12-07T15:58:25;2.22;;;2.03;;
34369;SDS011;20635;55.812;37.560;2022-12-07T16:00:51;1.90;;;1.63;;
34369;SDS011;20635;55.812;37.560;2022-12-07T16:03:17;3.05;;;1.63;;
34369;SDS011;20635;55.812;37.560;2022-12-07T16:05:50;1.55;;;1.40;;
34369;SDS011;20635;55.812;37.560;2022-12-07T16:08:17;1.90;;;1.60;;
34369;SDS011;20635;55.812;37.560;2022-12-07T16:10:43;2.60;;;1.77;;
34369;SDS011;20635;55.812;37.560;2022-12-07T16:13:09;2.55;;;1.58;;
34369;SDS011;20635;55.812;37.560;2022-12-07T16:15:41;1.90;;;1.67;;
34369;SDS011;20635;55.812;37.560;2022-12-07T16:18:08;2.67;;;1.58;;
34369;SDS011;20635;55.812;37.560;2022-12-07T16:20:34;1.50;;;1.40;;
34369;SDS011;20635;55.812;37.560;2022-12-07T16:23:00;1.80;;;1.20;;
34369;SDS011;20635;55.812;37.560;2022-12-07T16:25:26;1.85;;;1.70;;
34369;SDS011;20635;55.812;37.560;2022-12-07T16:27:52;1.80;;;1.60;;
34369;SDS011;20635;55.812;37.560;2022-12-07T16:30:18;2.15;;;1.60;;
34369;SDS011;20635;55.812;37.560;2022-12-07T16:32:44;2.33;;;1.70;;
34369;SDS011;20635;55.812;37.560;2022-12-07T16:35:10;1.90;;;1.48;;
34369;SDS011;20635;55.812;37.560;2022-12-07T16:37:36;1.70;;;1.40;;
34369;SDS011;20635;55.812;37.560;2022-12-07T16:40:03;3.13;;;1.83;;
34369;SDS011;20635;55.812;37.560;2022-12-07T16:42:33;5.65;;;2.67;;
34369;SDS011;20635;55.812;37.560;2022-12-07T16:45:00;6.75;;;2.70;;
34369;SDS011;20635;55.812;37.560;2022-12-07T16:47:26;9.48;;;3.00;;
34369;SDS011;20635;55.812;37.560;2022-12-07T16:49:52;7.78;;;3.30;;
34369;SDS011;20635;55.812;37.560;2022-12-07T16:52:18;6.82;;;2.88;;
34369;SDS011;20635;55.812;37.560;2022-12-07T16:54:45;5.20;;;3.08;;
34369;SDS011;20635;55.812;37.560;2022-12-07T16:57:11;6.65;;;2.30;;